Thunder radar more information blitzortung!


Radar de pluja more information rain snow radar


Visita la nostra xarxa de llocs de meteo:

Template documentation
and downloads

And another site



Wind From: 11-12-2017 11:00 Until: 14:59 warning for: Wind Level: Yellow info button

Pagina Historial Weather Underground text

Diari Resum Agost 20, 2017 Unitats:  Mètric    Imperial   Tant
« Previous Dia
SegĂźent Dia »
Diari Setmana Mensual Anual Personalitzada
  Maxima: Minima: Media:
Temperatura: 30.8 °C 20.6 °C 24.7 °C
Punt de rosada: 19.5 °C 15.4 °C 17.7 °C
Humitat: 85 % 43 % 67 %
Wind Speed: 22.2 km/h 0.0 km/h 5.4 km/h
RĂ fegues de vent: 22.2 km/h - -
Vent:- - SSW
Pression baro: 1019.9 hPa 1016.8 hPa -
Precipitacions: 0.0 mm    
Historical Graphs
 
 
Dades de taula per Agost 20, 2017
Temps Temperatura Punt de rosada Pression baro Vent Wind Speed RĂ fegues de vent Humitat Rainfall Rate (Hourly)
00:03 22.9 °C 17.8 °C 1018.8 hPa SW 3.7 km/h 3.7 km/h 73 % 0.0 mm
00:08 22.9 °C 17.8 °C 1018.8 hPa SW 3.7 km/h 3.7 km/h 73 % 0.0 mm
00:13 22.9 °C 17.8 °C 1017.8 hPa WSW 4.2 km/h 4.2 km/h 73 % 0.0 mm
00:18 22.9 °C 17.8 °C 1017.8 hPa WSW 2.3 km/h 2.3 km/h 73 % 0.0 mm
00:23 22.9 °C 17.8 °C 1017.8 hPa SW 3.9 km/h   73 % 0.0 mm
00:28 22.9 °C 17.8 °C 1018.8 hPa West 3.7 km/h 3.7 km/h 73 % 0.0 mm
00:33 22.9 °C 17.8 °C 1018.8 hPa SW 3.7 km/h 3.7 km/h 73 % 0.0 mm
00:38 22.9 °C 18.0 °C 1018.8 hPa SW 1.9 km/h 1.9 km/h 74 % 0.0 mm
00:43 22.9 °C 18.0 °C 1017.8 hPa SW 3.7 km/h 3.7 km/h 74 % 0.0 mm
00:49 22.9 °C 17.8 °C 1017.8 hPa WSW 3.7 km/h 3.7 km/h 73 % 0.0 mm
00:53 22.9 °C 18.0 °C 1017.8 hPa SW 1.9 km/h 1.9 km/h 74 % 0.0 mm
00:59 23.0 °C 17.9 °C 1018.8 hPa West 3.7 km/h 3.7 km/h 73 % 0.0 mm
01:04 22.9 °C 18.0 °C 1018.8 hPa SW 3.7 km/h 3.7 km/h 74 % 0.0 mm
01:09 22.9 °C 18.0 °C 1018.8 hPa WSW 2.6 km/h 2.6 km/h 74 % 0.0 mm
01:14 23.0 °C 17.9 °C 1017.8 hPa WSW 2.3 km/h 2.3 km/h 73 % 0.0 mm
01:19 23.0 °C 17.9 °C 1017.8 hPa WSW 3.7 km/h 3.7 km/h 73 % 0.0 mm
01:24 23.0 °C 18.1 °C 1017.8 hPa Calm     74 % 0.0 mm
01:29 23.0 °C 18.1 °C 1017.8 hPa SW 1.9 km/h   74 % 0.0 mm
01:34 23.0 °C 17.9 °C 1017.8 hPa WSW 3.7 km/h 3.7 km/h 73 % 0.0 mm
01:39 23.0 °C 18.1 °C 1017.8 hPa Calm     74 % 0.0 mm
01:44 23.0 °C 18.1 °C 1017.8 hPa WSW 1.9 km/h   74 % 0.0 mm
01:49 23.0 °C 18.1 °C 1017.8 hPa West 2.3 km/h   74 % 0.0 mm
01:54 23.0 °C 18.1 °C 1017.8 hPa SW 3.7 km/h 3.7 km/h 74 % 0.0 mm
01:59 23.0 °C 18.1 °C 1017.8 hPa WSW 1.4 km/h   74 % 0.0 mm
02:04 23.0 °C 18.1 °C 1017.8 hPa WSW 2.3 km/h   74 % 0.0 mm
02:09 23.0 °C 18.1 °C 1017.8 hPa WSW 3.7 km/h 3.7 km/h 74 % 0.0 mm
02:14 23.0 °C 18.1 °C 1017.8 hPa SW 3.7 km/h 3.7 km/h 74 % 0.0 mm
02:19 23.0 °C 18.1 °C 1017.8 hPa WSW 3.7 km/h 3.7 km/h 74 % 0.0 mm
02:24 23.0 °C 18.1 °C 1017.8 hPa SW 1.9 km/h   74 % 0.0 mm
02:29 23.0 °C 18.1 °C 1017.8 hPa WSW 3.7 km/h   74 % 0.0 mm
02:34 23.0 °C 18.1 °C 1017.8 hPa WSW 1.9 km/h   74 % 0.0 mm
02:39 23.0 °C 18.1 °C 1017.8 hPa WSW 3.7 km/h 3.7 km/h 74 % 0.0 mm
02:44 23.0 °C 18.1 °C 1016.8 hPa Calm     74 % 0.0 mm
02:49 23.0 °C 18.1 °C 1016.8 hPa West 2.3 km/h   74 % 0.0 mm
02:54 23.0 °C 18.1 °C 1016.8 hPa North 1.9 km/h   74 % 0.0 mm
02:59 23.0 °C 18.1 °C 1017.8 hPa West 1.9 km/h   74 % 0.0 mm
03:04 23.0 °C 18.1 °C 1017.8 hPa Calm     74 % 0.0 mm
03:09 23.0 °C 18.1 °C 1017.8 hPa Calm     74 % 0.0 mm
03:14 22.9 °C 18.2 °C 1017.8 hPa WSW 2.6 km/h   75 % 0.0 mm
03:19 22.9 °C 18.2 °C 1017.8 hPa WSW 1.9 km/h 1.9 km/h 75 % 0.0 mm
03:24 22.9 °C 18.2 °C 1017.8 hPa SW 1.9 km/h   75 % 0.0 mm
03:29 22.9 °C 18.2 °C 1017.8 hPa WSW 3.7 km/h 3.7 km/h 75 % 0.0 mm
03:34 22.9 °C 18.2 °C 1017.8 hPa SW 3.7 km/h 3.7 km/h 75 % 0.0 mm
03:39 22.9 °C 18.2 °C 1017.8 hPa WSW 3.7 km/h 3.7 km/h 75 % 0.0 mm
03:44 22.9 °C 18.2 °C 1017.8 hPa SSW 1.9 km/h   75 % 0.0 mm
03:49 22.8 °C 18.1 °C 1017.8 hPa SW 3.9 km/h 3.9 km/h 75 % 0.0 mm
03:54 22.8 °C 18.1 °C 1017.8 hPa Calm     75 % 0.0 mm
03:59 22.8 °C 18.1 °C 1017.8 hPa SW 4.7 km/h 4.7 km/h 75 % 0.0 mm
04:04 22.8 °C 18.3 °C 1017.8 hPa SW 1.9 km/h   76 % 0.0 mm
04:09 22.8 °C 18.3 °C 1017.8 hPa SW 3.7 km/h 3.7 km/h 76 % 0.0 mm
04:14 22.8 °C 18.1 °C 1017.8 hPa SW 5.6 km/h 5.6 km/h 75 % 0.0 mm
04:19 22.7 °C 18.2 °C 1017.8 hPa SW 3.7 km/h 3.7 km/h 76 % 0.0 mm
04:24 22.7 °C 18.2 °C 1017.8 hPa SW 3.7 km/h 3.7 km/h 76 % 0.0 mm
04:29 22.7 °C 18.2 °C 1017.8 hPa WSW 2.6 km/h 2.6 km/h 76 % 0.0 mm
04:34 22.7 °C 18.2 °C 1017.8 hPa West 3.7 km/h 3.7 km/h 76 % 0.0 mm
04:39 22.7 °C 18.2 °C 1017.8 hPa SW 1.9 km/h   76 % 0.0 mm
04:44 22.7 °C 18.2 °C 1017.8 hPa SW 1.9 km/h 1.9 km/h 76 % 0.0 mm
04:49 22.6 °C 18.2 °C 1017.8 hPa WSW 3.7 km/h 3.7 km/h 76 % 0.0 mm
04:54 22.5 °C 18.1 °C 1017.8 hPa SW 3.7 km/h   76 % 0.0 mm
04:59 22.4 °C 18.2 °C 1016.8 hPa SW 3.2 km/h 3.2 km/h 77 % 0.0 mm
05:04 22.4 °C 18.2 °C 1016.8 hPa SW 3.7 km/h 3.7 km/h 77 % 0.0 mm
05:09 22.3 °C 18.1 °C 1016.8 hPa SW 1.9 km/h 1.9 km/h 77 % 0.0 mm
05:15 22.2 °C 18.0 °C 1017.8 hPa WSW 3.7 km/h 3.7 km/h 77 % 0.0 mm
05:19 22.2 °C 18.0 °C 1017.8 hPa WSW 2.3 km/h 2.3 km/h 77 % 0.0 mm
05:20 22.2 °C 18.0 °C 1017.8 hPa WSW 2.3 km/h 2.3 km/h 77 % 0.0 mm
05:23 22.2 °C 18.0 °C 1017.8 hPa WSW 3.7 km/h 3.7 km/h 77 % 0.0 mm
05:25 22.1 °C 17.9 °C 1017.8 hPa West 3.7 km/h   77 % 0.0 mm
05:30 22.1 °C 18.1 °C 1016.8 hPa WSW 3.9 km/h 3.9 km/h 78 % 0.0 mm
05:35 22.1 °C 18.1 °C 1016.8 hPa Calm     78 % 0.0 mm
05:45 22.0 °C 18.0 °C 1017.8 hPa WSW 1.9 km/h 1.9 km/h 78 % 0.0 mm
05:50 21.9 °C 17.9 °C 1017.8 hPa WSW 2.6 km/h 2.6 km/h 78 % 0.0 mm
05:55 21.9 °C 17.9 °C 1017.8 hPa WSW 3.7 km/h 3.7 km/h 78 % 0.0 mm
06:00 21.9 °C 17.9 °C 1017.8 hPa West 3.7 km/h 3.7 km/h 78 % 0.0 mm
06:05 21.9 °C 18.1 °C 1017.8 hPa WSW 3.7 km/h 3.7 km/h 79 % 0.0 mm
06:10 21.9 °C 18.1 °C 1017.8 hPa Calm     79 % 0.0 mm
06:15 21.8 °C 18.0 °C 1017.8 hPa West 1.9 km/h 1.9 km/h 79 % 0.0 mm
06:20 21.8 °C 18.0 °C 1017.8 hPa Calm     79 % 0.0 mm
06:25 21.8 °C 18.2 °C 1017.8 hPa West 1.9 km/h 1.9 km/h 80 % 0.0 mm
06:27 21.8 °C 18.2 °C 1017.8 hPa Calm     80 % 0.0 mm
06:32 21.7 °C 18.1 °C 1017.8 hPa Calm     80 % 0.0 mm
06:37 21.7 °C 18.1 °C 1017.8 hPa Calm     80 % 0.0 mm
06:42 21.6 °C 18.0 °C 1017.8 hPa West 1.9 km/h   80 % 0.0 mm
06:47 21.6 °C 18.0 °C 1017.8 hPa West 1.9 km/h 1.9 km/h 80 % 0.0 mm
06:52 21.6 °C 18.0 °C 1017.8 hPa WSW 2.3 km/h   80 % 0.0 mm
06:57 21.6 °C 18.0 °C 1017.8 hPa Calm     80 % 0.0 mm
07:02 21.5 °C 17.9 °C 1017.8 hPa Calm     80 % 0.0 mm
07:07 21.4 °C 18.0 °C 1017.8 hPa Calm     81 % 0.0 mm
07:12 21.3 °C 17.9 °C 1017.8 hPa Calm     81 % 0.0 mm
07:17 21.3 °C 17.9 °C 1017.8 hPa Calm     81 % 0.0 mm
07:22 21.3 °C 17.9 °C 1017.8 hPa Calm     81 % 0.0 mm
07:27 21.3 °C 17.9 °C 1017.8 hPa Calm     81 % 0.0 mm
07:32 21.2 °C 18.0 °C 1017.8 hPa Calm     82 % 0.0 mm
07:37 21.2 °C 18.0 °C 1017.8 hPa Calm     82 % 0.0 mm
07:42 21.2 °C 18.0 °C 1017.8 hPa Calm     82 % 0.0 mm
07:47 21.2 °C 18.0 °C 1017.8 hPa Calm     82 % 0.0 mm
07:52 21.2 °C 18.0 °C 1017.8 hPa Calm     82 % 0.0 mm
07:57 21.2 °C 18.0 °C 1018.8 hPa SW 1.9 km/h 1.9 km/h 82 % 0.0 mm
08:02 21.2 °C 18.0 °C 1018.8 hPa Calm     82 % 0.0 mm
08:07 21.3 °C 18.1 °C 1018.8 hPa Calm     82 % 0.0 mm
08:12 21.4 °C 18.4 °C 1017.8 hPa Calm     83 % 0.0 mm
08:17 21.5 °C 18.3 °C 1017.8 hPa NE 3.9 km/h 3.9 km/h 82 % 0.0 mm
08:22 21.6 °C 18.4 °C 1017.8 hPa East 3.7 km/h 3.7 km/h 82 % 0.0 mm
08:27 21.6 °C 18.4 °C 1018.8 hPa East 1.9 km/h 1.9 km/h 82 % 0.0 mm
08:30 21.7 °C 18.5 °C 1018.8 hPa Calm     82 % 0.0 mm
08:35 21.7 °C 18.5 °C 1018.8 hPa Calm     82 % 0.0 mm
08:40 21.8 °C 18.6 °C 1018.8 hPa SSW 1.9 km/h   82 % 0.0 mm
08:45 21.9 °C 18.7 °C 1018.8 hPa Calm     82 % 0.0 mm
08:50 22.0 °C 18.8 °C 1018.8 hPa SW 3.2 km/h 3.2 km/h 82 % 0.0 mm
08:55 22.2 °C 19.0 °C 1018.8 hPa Calm     82 % 0.0 mm
09:00 22.4 °C 18.8 °C 1019.9 hPa SSW 3.7 km/h 3.7 km/h 80 % 0.0 mm
09:01 22.4 °C 18.8 °C 1019.9 hPa SW 3.7 km/h 3.7 km/h 80 % 0.0 mm
09:06 22.5 °C 18.7 °C 1019.9 hPa WSW 5.6 km/h 5.6 km/h 79 % 0.0 mm
09:11 22.8 °C 18.9 °C 1019.9 hPa WSW 3.9 km/h 4.2 km/h 79 % 0.0 mm
09:16 23.4 °C 19.1 °C 1018.8 hPa SW 4.7 km/h 4.7 km/h 77 % 0.0 mm
09:21 23.6 °C 19.1 °C 1018.8 hPa West 3.7 km/h 3.7 km/h 76 % 0.0 mm
09:26 23.7 °C 19.0 °C 1018.8 hPa SSW 3.7 km/h 3.7 km/h 75 % 0.0 mm
09:31 23.8 °C 19.1 °C 1019.9 hPa SW 3.7 km/h   75 % 0.0 mm
09:36 23.9 °C 19.0 °C 1019.9 hPa WSW 3.7 km/h 3.7 km/h 74 % 0.0 mm
09:41 24.1 °C 18.9 °C 1019.9 hPa WSW 5.6 km/h 5.6 km/h 73 % 0.0 mm
09:46 24.6 °C 19.2 °C 1018.8 hPa SW 7.4 km/h 7.4 km/h 72 % 0.0 mm
09:51 25.0 °C 18.9 °C 1018.8 hPa WSW 5.6 km/h 5.6 km/h 69 % 0.0 mm
09:56 25.2 °C 18.9 °C 1018.8 hPa SW 5.6 km/h 5.6 km/h 68 % 0.0 mm
10:01 25.6 °C 19.0 °C 1019.9 hPa ENE 3.7 km/h 3.7 km/h 67 % 0.0 mm
10:06 26.0 °C 19.2 °C 1019.9 hPa WSW 3.7 km/h   66 % 0.0 mm
10:11 25.8 °C 18.9 °C 1019.9 hPa SE 6.1 km/h 6.1 km/h 66 % 0.0 mm
10:16 25.8 °C 18.7 °C 1018.8 hPa WSW 5.6 km/h 5.6 km/h 65 % 0.0 mm
10:21 26.0 °C 18.9 °C 1018.8 hPa SW 7.4 km/h 7.4 km/h 65 % 0.0 mm
10:26 26.0 °C 18.9 °C 1018.8 hPa SSE 5.6 km/h 5.6 km/h 65 % 0.0 mm
10:31 26.4 °C 19.1 °C 1019.9 hPa SE 5.6 km/h 5.6 km/h 64 % 0.0 mm
10:36 26.1 °C 18.2 °C 1019.9 hPa East 7.4 km/h 7.4 km/h 62 % 0.0 mm
10:41 26.1 °C 18.5 °C 1019.9 hPa NNE 5.6 km/h 5.6 km/h 63 % 0.0 mm
10:46 26.4 °C 18.6 °C 1019.9 hPa NNW 5.0 km/h 5.0 km/h 62 % 0.0 mm
10:51 26.9 °C 19.0 °C 1019.9 hPa NNW 3.7 km/h 3.7 km/h 62 % 0.0 mm
10:56 27.2 °C 19.0 °C 1019.9 hPa SSW 5.8 km/h 5.8 km/h 61 % 0.0 mm
11:01 26.6 °C 18.4 °C 1019.9 hPa SW 6.1 km/h 6.1 km/h 61 % 0.0 mm
11:06 26.6 °C 18.4 °C 1019.9 hPa WNW 5.6 km/h 5.6 km/h 61 % 0.0 mm
11:11 27.0 °C 18.6 °C 1019.9 hPa ENE 6.1 km/h 6.1 km/h 60 % 0.0 mm
11:16 27.4 °C 18.4 °C 1018.8 hPa South 9.3 km/h 9.3 km/h 58 % 0.0 mm
11:21 27.9 °C 18.9 °C 1018.8 hPa ESE 5.6 km/h 5.6 km/h 58 % 0.0 mm
11:26 28.6 °C 19.2 °C 1018.8 hPa SE 3.7 km/h 3.7 km/h 57 % 0.0 mm
11:31 28.9 °C 19.5 °C 1018.8 hPa West 5.6 km/h 5.6 km/h 57 % 0.0 mm
11:36 28.5 °C 18.9 °C 1018.8 hPa SSW 7.4 km/h 7.4 km/h 56 % 0.0 mm
11:41 28.5 °C 18.6 °C 1018.8 hPa South 3.7 km/h 3.7 km/h 55 % 0.0 mm
11:46 28.1 °C 17.6 °C 1019.9 hPa ENE 9.3 km/h 9.3 km/h 53 % 0.0 mm
11:51 27.1 °C 17.0 °C 1019.9 hPa ENE 9.3 km/h 9.3 km/h 54 % 0.0 mm
11:56 27.1 °C 17.6 °C 1019.9 hPa South 4.2 km/h 4.2 km/h 56 % 0.0 mm
12:01 27.3 °C 18.1 °C 1019.9 hPa SSE 7.4 km/h 7.4 km/h 57 % 0.0 mm
12:06 27.3 °C 18.1 °C 1019.9 hPa East 7.4 km/h 7.4 km/h 57 % 0.0 mm
12:11 26.9 °C 18.2 °C 1019.9 hPa East 5.6 km/h 5.6 km/h 59 % 0.0 mm
12:16 26.5 °C 18.1 °C 1018.8 hPa SE 13.0 km/h 13.0 km/h 60 % 0.0 mm
12:21 26.8 °C 18.4 °C 1018.8 hPa ESE 16.4 km/h 16.4 km/h 60 % 0.0 mm
12:26 26.7 °C 18.6 °C 1018.8 hPa SSE 9.3 km/h 9.3 km/h 61 % 0.0 mm
12:31 26.9 °C 18.7 °C 1018.8 hPa East 11.1 km/h 11.1 km/h 61 % 0.0 mm
12:36 27.0 °C 18.3 °C 1018.8 hPa South 9.3 km/h 9.3 km/h 59 % 0.0 mm
12:41 26.9 °C 18.7 °C 1018.8 hPa SE 7.4 km/h 7.4 km/h 61 % 0.0 mm
12:46 27.0 °C 18.6 °C 1018.8 hPa ESE 7.4 km/h 7.4 km/h 60 % 0.0 mm
12:51 26.5 °C 18.4 °C 1018.8 hPa South 9.3 km/h 9.3 km/h 61 % 0.0 mm
12:56 25.9 °C 18.1 °C 1018.8 hPa West 18.5 km/h 18.5 km/h 62 % 0.0 mm
13:01 25.5 °C 17.7 °C 1018.8 hPa ENE 14.0 km/h 14.0 km/h 62 % 0.0 mm
13:06 25.1 °C 17.6 °C 1018.8 hPa SE 13.0 km/h 13.0 km/h 63 % 0.0 mm
13:11 25.4 °C 18.1 °C 1018.8 hPa SE 13.7 km/h 13.7 km/h 64 % 0.0 mm
13:16 25.6 °C 18.1 °C 1018.8 hPa SE 9.3 km/h 9.3 km/h 63 % 0.0 mm
13:21 25.7 °C 18.4 °C 1018.8 hPa SSE 14.8 km/h 14.8 km/h 64 % 0.0 mm
13:26 26.9 °C 19.0 °C 1018.8 hPa ESE 7.4 km/h 7.4 km/h 62 % 0.0 mm
13:31 27.7 °C 19.2 °C 1018.8 hPa SSE 7.9 km/h 7.9 km/h 60 % 0.0 mm
13:36 27.7 °C 19.2 °C 1018.8 hPa SSW 5.6 km/h 5.6 km/h 60 % 0.0 mm
13:41 28.1 °C 19.3 °C 1018.8 hPa SW 11.1 km/h 11.1 km/h 59 % 0.0 mm
13:46 28.5 °C 18.9 °C 1018.8 hPa SSW 7.4 km/h 7.4 km/h 56 % 0.0 mm
13:51 28.8 °C 19.2 °C 1018.8 hPa SSE 9.3 km/h 9.3 km/h 56 % 0.0 mm
13:56 28.2 °C 18.3 °C 1018.8 hPa SSW 11.1 km/h 11.1 km/h 55 % 0.0 mm
14:01 28.8 °C 19.2 °C 1017.8 hPa SSW 6.9 km/h 6.9 km/h 56 % 0.0 mm
14:06 28.9 °C 18.3 °C 1017.8 hPa SSE 18.5 km/h 18.5 km/h 53 % 0.0 mm
14:11 29.4 °C 18.2 °C 1017.8 hPa SSE 5.8 km/h 5.8 km/h 51 % 0.0 mm
14:16 29.4 °C 17.9 °C 1017.8 hPa SSE 13.0 km/h 13.0 km/h 50 % 0.0 mm
14:21 29.8 °C 18.9 °C 1017.8 hPa WSW 9.5 km/h 9.5 km/h 52 % 0.0 mm
14:26 29.7 °C 18.2 °C 1017.8 hPa South 5.6 km/h 5.6 km/h 50 % 0.0 mm
14:31 30.4 °C 18.8 °C 1017.8 hPa WSW 13.7 km/h 13.7 km/h 50 % 0.0 mm
14:36 30.6 °C 18.3 °C 1017.8 hPa ESE 11.1 km/h 11.1 km/h 48 % 0.0 mm
14:41 30.1 °C 17.9 °C 1017.8 hPa SSW 9.3 km/h 9.3 km/h 48 % 0.0 mm
14:46 30.1 °C 17.9 °C 1017.8 hPa South 11.1 km/h 11.1 km/h 48 % 0.0 mm
14:51 29.9 °C 18.1 °C 1017.8 hPa SSW 9.3 km/h 9.3 km/h 49 % 0.0 mm
14:56 29.9 °C 18.1 °C 1017.8 hPa SW 9.5 km/h 9.5 km/h 49 % 0.0 mm
15:01 29.7 °C 17.5 °C 1017.8 hPa ESE 7.4 km/h 7.4 km/h 48 % 0.0 mm
15:06 29.9 °C 18.1 °C 1017.8 hPa SW 9.3 km/h 9.3 km/h 49 % 0.0 mm
15:11 29.9 °C 17.7 °C 1017.8 hPa SSW 13.0 km/h 13.0 km/h 48 % 0.0 mm
15:16 30.2 °C 17.7 °C 1017.8 hPa SW 10.3 km/h 10.3 km/h 47 % 0.0 mm
15:21 30.1 °C 17.2 °C 1017.8 hPa SW 11.1 km/h 11.1 km/h 46 % 0.0 mm
15:22 30.0 °C 16.8 °C 1017.8 hPa SW 14.5 km/h 14.5 km/h 45 % 0.0 mm
15:27 30.6 °C 17.3 °C 1017.8 hPa WSW 5.6 km/h 5.6 km/h 45 % 0.0 mm
15:32 30.2 °C 17.3 °C 1017.8 hPa SW 14.8 km/h 14.8 km/h 46 % 0.0 mm
15:37 30.8 °C 17.5 °C 1017.8 hPa SSW 5.6 km/h 5.8 km/h 45 % 0.0 mm
15:42 30.2 °C 17.3 °C 1017.8 hPa ESE 9.3 km/h 9.3 km/h 46 % 0.0 mm
15:47 30.2 °C 16.9 °C 1017.8 hPa WSW 9.3 km/h 9.3 km/h 45 % 0.0 mm
15:52 30.4 °C 16.8 °C 1017.8 hPa WSW 11.1 km/h 11.1 km/h 44 % 0.0 mm
15:57 30.0 °C 16.1 °C 1017.8 hPa SW 16.7 km/h 16.7 km/h 43 % 0.0 mm
16:02 29.7 °C 15.8 °C 1017.8 hPa SSW 13.0 km/h 13.0 km/h 43 % 0.0 mm
16:07 30.0 °C 16.1 °C 1017.8 hPa WSW 19.8 km/h 19.8 km/h 43 % 0.0 mm
16:12 29.8 °C 15.9 °C 1017.8 hPa SSW 14.8 km/h 14.8 km/h 43 % 0.0 mm
16:17 29.8 °C 15.9 °C 1017.8 hPa SW 16.7 km/h 16.7 km/h 43 % 0.0 mm
16:22 29.9 °C 15.9 °C 1017.8 hPa WSW 18.5 km/h 18.5 km/h 43 % 0.0 mm
16:27 29.7 °C 16.2 °C 1017.8 hPa South 22.2 km/h 22.2 km/h 44 % 0.0 mm
16:32 29.7 °C 15.8 °C 1017.8 hPa SW 11.9 km/h 11.9 km/h 43 % 0.0 mm
16:37 29.6 °C 15.7 °C 1017.8 hPa SW 20.4 km/h 20.4 km/h 43 % 0.0 mm
16:42 29.6 °C 15.7 °C 1018.8 hPa South 7.4 km/h 7.4 km/h 43 % 0.0 mm
16:47 29.5 °C 15.6 °C 1018.8 hPa SW 12.6 km/h 12.6 km/h 43 % 0.0 mm
16:52 29.7 °C 15.8 °C 1018.8 hPa SW 13.0 km/h 13.0 km/h 43 % 0.0 mm
16:57 29.4 °C 15.5 °C 1017.8 hPa SW 13.0 km/h 13.0 km/h 43 % 0.0 mm
17:02 29.3 °C 15.4 °C 1017.8 hPa SSW 13.0 km/h 13.0 km/h 43 % 0.0 mm
17:07 29.7 °C 15.8 °C 1017.8 hPa SW 13.0 km/h 13.0 km/h 43 % 0.0 mm
17:12 29.0 °C 15.5 °C 1017.8 hPa SSW 9.3 km/h 9.5 km/h 44 % 0.0 mm
17:17 29.6 °C 16.1 °C 1017.8 hPa South 9.3 km/h 9.3 km/h 44 % 0.0 mm
17:22 29.8 °C 16.6 °C 1017.8 hPa WSW 13.0 km/h 13.0 km/h 45 % 0.0 mm
17:27 29.5 °C 16.3 °C 1017.8 hPa West 11.9 km/h 11.9 km/h 45 % 0.0 mm
17:32 29.2 °C 16.1 °C 1017.8 hPa SSW 11.1 km/h 11.1 km/h 45 % 0.0 mm
17:37 29.6 °C 16.4 °C 1017.8 hPa SW 15.1 km/h 15.1 km/h 45 % 0.0 mm
17:42 29.1 °C 16.3 °C 1017.8 hPa SW 3.7 km/h 3.7 km/h 46 % 0.0 mm
17:47 28.8 °C 16.4 °C 1017.8 hPa WSW 7.4 km/h 7.4 km/h 47 % 0.0 mm
17:52 28.6 °C 16.5 °C 1017.8 hPa SE 10.0 km/h 10.0 km/h 48 % 0.0 mm
17:57 28.0 °C 15.9 °C 1017.8 hPa SW 9.3 km/h 9.3 km/h 48 % 0.0 mm
18:02 27.6 °C 15.9 °C 1017.8 hPa SSW 9.3 km/h 9.3 km/h 49 % 0.0 mm
18:07 27.7 °C 16.0 °C 1017.8 hPa SSE 5.8 km/h 5.8 km/h 49 % 0.0 mm
18:12 27.5 °C 16.2 °C 1017.8 hPa ESE 7.4 km/h 7.4 km/h 50 % 0.0 mm
18:17 27.3 °C 15.9 °C 1017.8 hPa SW 13.0 km/h 13.0 km/h 50 % 0.0 mm
18:22 27.2 °C 15.9 °C 1017.8 hPa WSW 11.1 km/h 11.1 km/h 50 % 0.0 mm
18:27 27.1 °C 15.8 °C 1017.8 hPa West 7.4 km/h 7.4 km/h 50 % 0.0 mm
18:32 27.0 °C 15.7 °C 1017.8 hPa SW 13.7 km/h 13.7 km/h 50 % 0.0 mm
18:37 27.1 °C 16.1 °C 1017.8 hPa SW 11.1 km/h 11.1 km/h 51 % 0.0 mm
18:42 27.1 °C 16.1 °C 1017.8 hPa SW 11.1 km/h 11.1 km/h 51 % 0.0 mm
18:47 27.1 °C 16.1 °C 1017.8 hPa SW 5.6 km/h 5.6 km/h 51 % 0.0 mm
18:52 27.1 °C 16.4 °C 1017.8 hPa SSW 7.4 km/h 7.4 km/h 52 % 0.0 mm
18:57 27.3 °C 16.3 °C 1017.8 hPa SW 7.4 km/h 7.4 km/h 51 % 0.0 mm
19:02 27.2 °C 16.2 °C 1017.8 hPa WSW 9.3 km/h 9.3 km/h 51 % 0.0 mm
19:07 27.2 °C 16.5 °C 1017.8 hPa SW 5.6 km/h 6.1 km/h 52 % 0.0 mm
19:12 27.1 °C 16.4 °C 1017.8 hPa SSW 9.3 km/h 9.3 km/h 52 % 0.0 mm
19:17 26.8 °C 16.4 °C 1017.8 hPa South 7.4 km/h 7.4 km/h 53 % 0.0 mm
19:22 26.7 °C 16.6 °C 1017.8 hPa SW 3.7 km/h 3.7 km/h 54 % 0.0 mm
19:27 26.5 °C 16.4 °C 1017.8 hPa South 13.0 km/h 13.0 km/h 54 % 0.0 mm
19:32 26.3 °C 16.6 °C 1017.8 hPa SSE 13.0 km/h 13.0 km/h 55 % 0.0 mm
19:37 26.2 °C 16.4 °C 1017.8 hPa SSW 9.3 km/h 9.3 km/h 55 % 0.0 mm
19:42 25.9 °C 16.4 °C 1017.8 hPa WSW 13.0 km/h 13.0 km/h 56 % 0.0 mm
19:43 25.9 °C 16.4 °C 1017.8 hPa SW 5.6 km/h 6.9 km/h 56 % 0.0 mm
19:48 25.8 °C 16.3 °C 1017.8 hPa SW 9.3 km/h 9.3 km/h 56 % 0.0 mm
19:53 25.7 °C 16.6 °C 1017.8 hPa SSW 9.3 km/h 9.3 km/h 57 % 0.0 mm
19:58 25.6 °C 16.4 °C 1016.8 hPa SW 9.3 km/h 9.3 km/h 57 % 0.0 mm
20:03 25.4 °C 16.3 °C 1016.8 hPa SW 7.4 km/h 7.4 km/h 57 % 0.0 mm
20:08 25.3 °C 16.2 °C 1016.8 hPa SSW 9.3 km/h 9.3 km/h 57 % 0.0 mm
20:13 25.1 °C 16.3 °C 1017.8 hPa SW 9.3 km/h 9.3 km/h 58 % 0.0 mm
20:15 22.1 °C 17.7 °C 1018.8 hPa SW 1.6 km/h 3.2 km/h 76 % 0.0 mm
20:18 25.0 °C 16.2 °C 1017.8 hPa SW 9.3 km/h 9.3 km/h 58 % 0.0 mm
20:23 24.9 °C 16.6 °C 1017.8 hPa SW 9.3 km/h 9.3 km/h 60 % 0.0 mm
20:25 22.1 °C 18.1 °C 1018.8 hPa SW 1.6 km/h 3.2 km/h 78 % 0.0 mm
20:28 24.8 °C 16.5 °C 1017.8 hPa WSW 9.3 km/h 9.3 km/h 60 % 0.0 mm
20:33 24.6 °C 16.6 °C 1017.8 hPa SW 7.4 km/h 7.4 km/h 61 % 0.0 mm
20:35 22.1 °C 18.1 °C 1019.9 hPa SW 1.6 km/h 3.2 km/h 78 % 0.0 mm
20:38 24.6 °C 16.6 °C 1017.8 hPa SW 5.6 km/h 5.6 km/h 61 % 0.0 mm
20:43 24.5 °C 16.5 °C 1017.8 hPa South 7.4 km/h 7.4 km/h 61 % 0.0 mm
20:45 22.0 °C 18.0 °C 1019.9 hPa SW 1.6 km/h 3.2 km/h 78 % 0.0 mm
20:48 24.4 °C 16.4 °C 1017.8 hPa South 7.4 km/h 7.4 km/h 61 % 0.0 mm
20:53 24.3 °C 16.3 °C 1017.8 hPa SW 6.1 km/h 6.1 km/h 61 % 0.0 mm
20:55 21.9 °C 18.1 °C 1019.9 hPa SW 1.6 km/h 3.2 km/h 79 % 0.0 mm
20:58 24.2 °C 16.4 °C 1017.8 hPa WSW 5.6 km/h 5.6 km/h 62 % 0.0 mm
21:03 24.1 °C 16.6 °C 1017.8 hPa SW 5.8 km/h 5.8 km/h 63 % 0.0 mm
21:05 21.8 °C 18.0 °C 1018.8 hPa SW 1.6 km/h 3.2 km/h 79 % 0.0 mm
21:08 24.0 °C 16.5 °C 1017.8 hPa SW 5.6 km/h 5.6 km/h 63 % 0.0 mm
21:13 24.0 °C 16.8 °C 1017.8 hPa SW 5.6 km/h 5.6 km/h 64 % 0.0 mm
21:15 21.7 °C 17.9 °C 1018.8 hPa WSW 1.6 km/h 3.2 km/h 79 % 0.0 mm
21:18 23.9 °C 16.9 °C 1017.8 hPa SW 3.7 km/h 3.7 km/h 65 % 0.0 mm
21:23 23.8 °C 16.8 °C 1017.8 hPa South 5.6 km/h 5.6 km/h 65 % 0.0 mm
21:25 21.7 °C 17.9 °C 1018.8 hPa WSW 1.6 km/h 3.2 km/h 79 % 0.0 mm
21:28 23.7 °C 16.9 °C 1018.8 hPa SW 5.6 km/h 5.6 km/h 66 % 0.0 mm
21:33 23.7 °C 17.2 °C 1018.8 hPa SSW 3.9 km/h 3.9 km/h 67 % 0.0 mm
21:35 21.8 °C 18.2 °C 1018.8 hPa WSW 1.6 km/h 3.2 km/h 80 % 0.0 mm
21:38 23.6 °C 17.1 °C 1018.8 hPa SW 3.7 km/h 3.7 km/h 67 % 0.0 mm
21:43 23.5 °C 17.3 °C 1018.8 hPa SW 3.9 km/h 3.9 km/h 68 % 0.0 mm
21:45 21.8 °C 18.2 °C 1018.8 hPa West 1.6 km/h 3.2 km/h 80 % 0.0 mm
21:48 23.5 °C 17.3 °C 1018.8 hPa SW 3.7 km/h 3.7 km/h 68 % 0.0 mm
21:53 23.4 °C 17.2 °C 1018.8 hPa SW 3.7 km/h 3.7 km/h 68 % 0.0 mm
21:55 21.8 °C 18.4 °C 1018.8 hPa West 1.6 km/h 4.8 km/h 81 % 0.0 mm
21:58 23.4 °C 17.4 °C 1018.8 hPa SW 3.7 km/h 3.7 km/h 69 % 0.0 mm
22:03 23.3 °C 17.3 °C 1018.8 hPa SW 3.7 km/h 3.7 km/h 69 % 0.0 mm
22:05 21.8 °C 18.4 °C 1018.8 hPa Calm   3.2 km/h 81 % 0.0 mm
22:08 23.2 °C 17.4 °C 1018.8 hPa SW 3.5 km/h   70 % 0.0 mm
22:13 23.2 °C 17.4 °C 1018.8 hPa SSW 3.7 km/h 3.7 km/h 70 % 0.0 mm
22:15 21.7 °C 18.5 °C 1018.8 hPa Calm   3.2 km/h 82 % 0.0 mm
22:18 23.1 °C 17.3 °C 1018.8 hPa SW 4.7 km/h 4.7 km/h 70 % 0.0 mm
22:23 23.1 °C 17.6 °C 1018.8 hPa SW 2.3 km/h   71 % 0.0 mm
22:25 21.6 °C 18.4 °C 1018.8 hPa Calm     82 % 0.0 mm
22:28 23.0 °C 17.4 °C 1018.8 hPa SW 3.7 km/h 3.7 km/h 71 % 0.0 mm
22:29 23.0 °C 17.4 °C 1018.8 hPa SW 1.9 km/h 1.9 km/h 71 % 0.0 mm
22:34 23.0 °C 17.7 °C 1018.8 hPa SW 3.7 km/h 3.7 km/h 72 % 0.0 mm
22:35 21.4 °C 18.2 °C 1018.8 hPa Calm     82 % 0.0 mm
22:39 22.9 °C 17.6 °C 1018.8 hPa WSW 3.7 km/h 3.7 km/h 72 % 0.0 mm
22:44 22.9 °C 17.8 °C 1018.8 hPa SW 3.7 km/h 3.7 km/h 73 % 0.0 mm
22:45 21.3 °C 18.3 °C 1018.8 hPa Calm     83 % 0.0 mm
22:49 22.8 °C 17.7 °C 1018.8 hPa Calm     73 % 0.0 mm
22:54 22.8 °C 17.7 °C 1018.8 hPa Calm     73 % 0.0 mm
22:55 21.0 °C 18.0 °C 1018.8 hPa Calm   1.6 km/h 83 % 0.0 mm
22:59 22.8 °C 17.7 °C 1018.8 hPa WSW 1.9 km/h 2.3 km/h 73 % 0.0 mm
23:04 22.9 °C 18.0 °C 1018.8 hPa WSW 1.9 km/h 1.9 km/h 74 % 0.0 mm
23:05 20.9 °C 17.9 °C 1018.8 hPa Calm   1.6 km/h 83 % 0.0 mm
23:09 22.8 °C 17.9 °C 1018.8 hPa WSW 2.3 km/h 2.3 km/h 74 % 0.0 mm
23:14 22.8 °C 17.9 °C 1018.8 hPa Calm     74 % 0.0 mm
23:15 20.7 °C 17.5 °C 1018.8 hPa South 3.2 km/h 3.2 km/h 82 % 0.0 mm
23:19 22.8 °C 18.1 °C 1018.8 hPa Calm     75 % 0.0 mm
23:24 22.7 °C 18.1 °C 1018.8 hPa Calm     75 % 0.0 mm
23:25 20.6 °C 17.6 °C 1018.8 hPa Calm   4.8 km/h 83 % 0.0 mm
23:29 22.7 °C 18.1 °C 1018.8 hPa SW 1.9 km/h   75 % 0.0 mm
23:34 22.6 °C 17.9 °C 1018.8 hPa Calm     75 % 0.0 mm
23:35 20.8 °C 18.0 °C 1018.8 hPa Calm   1.6 km/h 84 % 0.0 mm
23:39 22.5 °C 17.8 °C 1018.8 hPa SW 2.3 km/h 2.3 km/h 75 % 0.0 mm
23:44 22.5 °C 17.8 °C 1018.8 hPa WSW 1.9 km/h   75 % 0.0 mm
23:45 20.7 °C 18.1 °C 1018.8 hPa Calm     85 % 0.0 mm
23:49 22.5 °C 18.1 °C 1018.8 hPa Calm     76 % 0.0 mm
23:54 22.4 °C 17.9 °C 1018.8 hPa SW 1.9 km/h 1.9 km/h 76 % 0.0 mm
23:55 20.7 °C 18.1 °C 1018.8 hPa SSE 3.2 km/h 6.4 km/h 85 % 0.0 mm
23:59 22.4 °C 17.9 °C 1018.8 hPa Calm     76 % 0.0 mm
Meteo Sesrovires
Elogis d' Weather Underground - 4.25 mb

Guio original per  Jim McMurry - jmcmurry@mwt.net Adaptat per a la plantilla per  Wim van der Kuil - Leuven-Template.eu

Trobareu la nostra informacio del temps tambe a:

Weather Underground

AWEKAS